Denfield, Canada
Current Conditions -  °F | °C
As of 9:00 PM on Friday 21 Nov 2014 (Local Time) from CYXU Reporting Station
Few Clouds Few Clouds  
Wind Chill:   Ceiling: Unl
Heat Index: 18°   Visibility: 15mi
Dew Point: 10°   Wind: 10mph
Humidity: 73%   Direction: 230°SW
Pressure: 30.37"   Gusts: NA
Location:  43.13°N, 81.43°W
Report Text: CYXU 220200Z 23009KT 15SM FEW030 M08/M12 A3037 RMK SC1 SC TR SLP304
Loading
Personal Weather Stations






























Interactive Weather Map New forecast layout! Learn more

10-Day Weather Forecast

Advertisements
Track Severe Weather on mobile